Latest Weather Observations for Coolangatta

IDQ60801

Issued at 5:22 pm EST Saturday 20 April 2024 (issued every 10 minutes, with the page automatically refreshed every 10 minutes)

About weather observations | Map of weather stations | Latest weather observations for QLD | Other Formats
Station Details ID: 040717 Name: COOLANGATTA Lat: -28.17 Lon: 153.51 Height: 4.0 m
Data from the previous 72 hours. | See also: Recent months at Coolangatta

Observations at Coolangatta are collected in the Queensland time zone, which does not include daylight savings during the summer period. Therefore 'Rain since 9am' totals and other values are based on the Queensland time zone.

Date/Time
EST
Temp
°C
App
Temp
°C
Dew
Point
°C
Rel
Hum
%
Delta-T
°C
Wind Press
QNH
hPa
Press
MSL
hPa
Rain since
9am
mm
Dir  Spd
km/h
Gust
km/h
Spd
kts
Gust
kts
20/05:00pm 19.9 18.4 16.2 79 2.2 SW 19 30 10 16 1017.7 1017.7 0.0
20/04:30pm 20.2 19.1 16.4 79 2.3 SSW 17 24 9 13 1017.4 1017.4 0.0
20/04:00pm 20.4 18.3 16.2 77 2.5 SSW 22 35 12 19 1016.5 1016.4 0.0
20/03:30pm 20.6 19.4 16.0 75 2.8 SSW 17 28 9 15 1017.0 1017.0 0.0
20/03:00pm 21.0 19.2 15.5 71 3.3 SSW 19 28 10 15 1016.2 1016.1 0.0
20/02:30pm 21.4 20.5 15.9 71 3.3 S 15 20 8 11 1016.7 1016.7 0.0
20/02:00pm 21.7 20.6 15.3 67 3.8 S 15 22 8 12 1016.6 1016.5 0.0
20/01:30pm 22.2 20.6 16.0 68 3.7 SSW 19 26 10 14 1016.6 1016.5 0.0
20/01:00pm 22.7 20.7 15.5 64 4.3 SSW 20 32 11 17 1016.3 1016.2 0.0
20/12:57pm 22.8 21.2 15.9 65 4.2 SSW 19 28 10 15 1016.3 1016.2 0.0
20/12:35pm 23.1 21.9 16.2 65 4.2 SSW 17 24 9 13 1016.7 1016.7 0.0
20/12:30pm 23.1 21.5 16.4 66 4.1 SSW 20 30 11 16 1016.9 1016.9 0.0
20/12:00pm 23.5 22.2 16.8 66 4.1 S 19 26 10 14 1016.8 1016.8 0.0
20/11:30am 23.4 20.9 16.2 64 4.4 S 24 33 13 18 1017.1 1017.1 0.0
20/11:00am 24.0 22.6 17.0 65 4.3 SSW 20 32 11 17 1017.5 1017.5 0.0
20/10:30am 23.5 21.1 16.5 65 4.3 S 24 33 13 18 1018.0 1018.0 0.0
20/10:00am 23.3 21.9 16.6 66 4.1 S 19 32 10 17 1018.3 1018.3 0.0
20/09:30am 22.4 20.7 15.7 66 4.0 SW 19 30 10 16 1018.4 1018.4 0.0
20/09:00am 21.9 20.1 15.5 67 3.8 SSW 19 32 10 17 1018.6 1018.6 0.2
20/08:30am 21.0 18.9 15.1 69 3.5 SSW 20 30 11 16 1018.6 1018.6 0.2
20/08:00am 20.3 18.4 15.1 72 3.1 SSW 19 30 10 16 1018.6 1018.6 0.2
20/07:30am 19.6 17.6 15.0 75 2.7 SSW 19 28 10 15 1018.4 1018.4 0.2
20/07:00am 18.8 17.5 14.7 77 2.4 SSW 15 20 8 11 1018.1 1018.1 0.2
20/06:30am 17.9 16.9 14.6 81 1.9 SSW 13 22 7 12 1017.5 1017.5 0.2
20/06:00am 18.1 16.7 14.6 80 2.0 SW 15 22 8 12 1017.4 1017.4 0.2
20/05:30am 18.0 17.0 14.7 81 1.9 SSW 13 22 7 12 1016.8 1016.8 0.2
20/05:00am 18.3 17.0 14.8 80 2.0 SSW 15 22 8 12 1016.5 1016.4 0.2
20/04:30am 18.5 17.2 14.8 79 2.1 SSW 15 24 8 13 1016.2 1016.1 0.2
20/04:00am 17.0 16.8 14.8 87 1.3 S 9 13 5 7 1016.0 1015.9 0.2
20/03:30am 17.2 17.0 14.7 85 1.4 S 9 17 5 9 1015.8 1015.7 0.2
20/03:00am 17.4 18.9 14.7 84 1.6 CALM 0 6 0 3 1015.8 1015.7 0.2
20/02:30am 17.9 18.0 14.4 80 2.0 S 7 11 4 6 1015.9 1015.8 0.2
20/02:00am 18.3 18.7 15.2 82 1.8 SW 7 9 4 5 1016.2 1016.1 0.2
20/01:30am 18.4 18.7 14.9 80 2.0 SW 7 9 4 5 1016.5 1016.4 0.2
20/01:00am 18.6 19.2 15.7 83 1.7 SW 7 11 4 6 1016.7 1016.7 0.2
20/12:30am 19.3 18.8 15.0 76 2.5 SSW 11 15 6 8 1016.9 1016.9 0.2
20/12:00am 19.5 19.7 15.8 79 2.2 SW 9 13 5 7 1017.1 1017.1 0.2
 
Date/Time
EST
Temp
°C
App
Temp
°C
Dew
Point
°C
Rel
Hum
%
Delta-T
°C
Wind Press
QNH
hPa
Press
MSL
hPa
Rain since
9am
mm
Dir  Spd
km/h
Gust
km/h
Spd
kts
Gust
kts
19/11:30pm 19.4 20.0 15.9 80 2.1 SSW 7 11 4 6 1017.3 1017.3 0.2
19/11:00pm 18.5 20.5 16.1 86 1.4 CALM 0 0 0 0 1017.5 1017.5 0.2
19/10:30pm 19.6 20.3 15.5 77 2.4 SSW 6 11 3 6 1017.5 1017.5 0.2
19/10:00pm 19.9 19.6 15.5 76 2.6 SSW 11 15 6 8 1017.5 1017.5 0.2
19/09:30pm 20.2 19.7 15.8 76 2.6 SW 13 17 7 9 1017.6 1017.6 0.2
19/09:00pm 19.9 20.3 16.2 79 2.2 SSW 9 17 5 9 1017.6 1017.6 0.2
19/08:30pm 18.8 19.4 16.8 88 1.2 WSW 9 11 5 6 1017.4 1017.4 0.2
19/08:00pm 19.4 20.2 17.2 87 1.3 SW 9 11 5 6 1017.1 1017.1 0.2
19/07:30pm 20.1 20.3 16.7 81 2.1 SW 11 13 6 7 1016.8 1016.8 0.2
19/07:00pm 20.3 21.2 16.7 80 2.2 SSW 7 9 4 5 1016.5 1016.4 0.2
19/06:30pm 20.7 21.4 17.1 80 2.2 SSW 9 9 5 5 1016.0 1015.9 0.2
19/06:00pm 21.1 21.7 16.9 77 2.6 S 9 13 5 7 1015.4 1015.3 0.2
19/05:30pm 22.2 22.5 16.9 72 3.2 SSE 11 15 6 8 1015.2 1015.1 0.2
19/05:00pm 22.9 23.1 16.7 68 3.8 SSE 11 17 6 9 1014.8 1014.7 0.2
19/04:30pm 23.3 22.8 16.8 67 4.0 SSE 15 20 8 11 1014.3 1014.2 0.2
19/04:00pm 23.7 22.4 16.7 65 4.3 SE 19 24 10 13 1014.0 1013.9 0.2
19/03:30pm 23.9 22.6 16.7 64 4.4 ESE 19 24 10 13 1014.0 1013.9 0.2
19/03:00pm 23.9 22.4 16.2 62 4.7 ESE 19 28 10 15 1013.8 1013.7 0.2
19/02:30pm 24.5 22.2 15.7 58 5.3 ESE 22 28 12 15 1013.7 1013.6 0.2
19/02:00pm 24.9 22.5 16.3 59 5.3 ESE 24 32 13 17 1013.6 1013.5 0.2
19/01:30pm 25.6 23.2 16.5 57 5.6 ESE 24 30 13 16 1013.7 1013.6 0.2
19/01:00pm 25.5 23.0 16.1 56 5.7 ESE 24 32 13 17 1013.8 1013.7 0.2
19/12:30pm 25.3 23.0 15.6 55 5.9 SE 22 28 12 15 1014.1 1014.0 0.2
19/12:00pm 25.8 24.1 14.6 50 6.7 SSE 17 20 9 11 1014.5 1014.4 0.2
19/11:30am 25.1 24.1 14.6 52 6.3 S 13 20 7 11 1014.8 1014.7 0.2
19/11:00am 24.4 23.9 15.9 59 5.2 S 13 22 7 12 1015.0 1014.9 0.2
19/10:30am 24.0 22.7 15.8 60 5.0 S 17 24 9 13 1015.4 1015.3 0.2
19/10:00am 23.9 22.3 14.0 54 5.8 S 15 20 8 11 1015.4 1015.3 0.0
19/09:30am 23.3 23.0 15.4 61 4.7 SSW 11 15 6 8 1015.5 1015.4 0.0
19/09:00am 22.4 23.1 16.2 68 3.7 S 7 13 4 7 1015.5 1015.4 0.8
19/08:30am 21.0 22.4 17.8 82 2.0 SSE 7 9 4 5 1015.4 1015.3 0.8
19/08:00am 19.0 19.7 17.1 89 1.2 SSE 9 11 5 6 1015.1 1015.0 0.8
19/07:30am 17.6 18.6 16.8 95 0.5 SSE 7 11 4 6 1014.8 1014.7 0.8
19/07:00am 16.9 18.9 16.9 100 0.0 S 2 7 1 4 1014.6 1014.5 0.8
19/06:30am 15.9 16.5 15.9 100 0.0 SSW 7 9 4 5 1014.2 1014.1 0.8
19/06:00am 15.5 16.9 15.5 100 0.0 SSW 2 6 1 3 1013.9 1013.8 0.8
19/05:30am 15.9 17.5 15.9 100 0.0 SSW 2 6 1 3 1013.6 1013.5 0.8
19/05:00am 15.8 17.7 15.8 100 0.0 CALM 0 0 0 0 1013.3 1013.2 0.8
19/04:32am 16.3 16.3 16.3 100 0.0 SSE 11 13 6 7 1013.1 1013.0 0.8
19/04:30am 16.1 16.4 16.1 100 0.0 SSE 9 13 5 7 1013.1 1013.0 0.8
19/04:16am 15.7 17.1 15.5 99 0.1 SSE 2 9 1 5 1013.1 1013.0 0.8
19/04:00am 16.3 18.3 16.1 99 0.1 CALM 0 0 0 0 1013.0 1012.9 0.8
19/03:30am 16.3 17.2 16.1 99 0.1 S 6 7 3 4 1013.0 1012.9 0.8
19/03:00am 16.9 17.8 16.7 99 0.1 SSW 7 9 4 5 1013.0 1012.9 0.8
19/02:30am 17.1 17.4 16.9 99 0.1 S 11 13 6 7 1013.3 1013.2 0.8
19/02:00am 16.9 18.0 16.7 99 0.1 S 6 7 3 4 1013.4 1013.3 0.8
19/01:30am 17.2 18.3 17.0 99 0.1 SSW 7 9 4 5 1013.8 1013.7 0.8
19/01:00am 17.7 18.2 17.5 99 0.1 SW 11 13 6 7 1014.2 1014.1 0.8
19/12:30am 17.9 18.5 17.7 99 0.1 WSW 11 13 6 7 1014.6 1014.5 0.8
19/12:00am 17.8 19.1 17.6 99 0.1 WSW 7 9 4 5 1014.8 1014.7 0.8
 
Date/Time
EST
Temp
°C
App
Temp
°C
Dew
Point
°C
Rel
Hum
%
Delta-T
°C
Wind Press
QNH
hPa
Press
MSL
hPa
Rain since
9am
mm
Dir  Spd
km/h
Gust
km/h
Spd
kts
Gust
kts
18/11:30pm 18.4 20.0 17.9 97 0.3 S 6 7 3 4 1015.0 1014.9 0.8
18/11:00pm 19.1 20.1 17.8 92 0.8 SE 9 13 5 7 1015.3 1015.2 0.8
18/10:30pm 19.5 20.5 17.8 90 1.0 E 9 17 5 9 1015.4 1015.3 0.8
18/10:29pm 19.5 20.5 17.8 90 1.0 E 9 15 5 8 1015.4 1015.3 0.8
18/10:14pm 19.6 21.1 17.6 88 1.2 S 6 9 3 5 1015.8 1015.7 0.6
18/10:00pm 20.0 20.7 17.0 83 1.8 SSW 9 13 5 7 1015.9 1015.8 0.4
18/09:30pm 20.6 19.8 17.0 80 2.2 SW 17 24 9 13 1016.0 1015.9 0.4
18/09:00pm 21.6 20.9 19.5 88 1.3 SSW 22 30 12 16 1015.9 1015.8 0.0
18/08:30pm 21.2 23.1 19.8 92 0.9 WNW 9 13 5 7 1014.8 1014.7 0.0
18/08:00pm 21.1 23.1 19.9 93 0.8 NW 9 13 5 7 1014.7 1014.6 0.0
18/07:30pm 21.4 23.4 19.9 91 1.0 NW 9 9 5 5 1014.7 1014.6 0.0
18/07:00pm 22.2 24.6 20.1 88 1.3 NW 7 9 4 5 1014.9 1014.8 0.0
18/06:30pm 22.6 23.8 19.9 85 1.7 N 13 19 7 10 1014.6 1014.5 0.0
18/06:00pm 22.8 23.7 20.0 84 1.8 NNW 15 20 8 11 1014.4 1014.3 0.0
18/05:30pm 22.9 23.5 20.2 85 1.7 N 17 20 9 11 1014.3 1014.2 0.0
18/05:00pm 23.5 24.1 20.2 82 2.1 N 17 22 9 12 1014.0 1013.9 0.0
18/04:30pm 23.8 23.9 20.3 81 2.3 N 20 26 11 14 1014.1 1014.0 0.0
18/04:00pm 24.1 24.3 20.2 79 2.5 N 19 26 10 14 1014.1 1014.0 0.0
18/03:30pm 23.9 25.0 21.2 85 1.8 NE 17 22 9 12 1014.3 1014.2 0.0
18/03:00pm 24.1 25.3 21.4 85 1.8 NNE 17 22 9 12 1014.5 1014.4 0.0
18/02:30pm 24.3 25.7 21.0 82 2.2 NNE 15 20 8 11 1014.7 1014.6 0.0
18/02:00pm 24.4 24.7 20.5 79 2.5 NNE 19 24 10 13 1014.9 1014.8 0.0
18/01:30pm 24.9 26.2 20.2 75 3.1 N 13 19 7 10 1015.3 1015.2 0.0
18/01:00pm 24.8 26.5 20.1 75 3.0 N 11 17 6 9 1015.5 1015.4 0.0
18/12:30pm 24.6 26.5 19.7 74 3.2 N 9 15 5 8 1016.2 1016.1 0.0
18/12:00pm 24.7 26.5 20.4 77 2.8 N 11 15 6 8 1016.7 1016.7 0.0
18/11:30am 24.6 26.6 19.9 75 3.0 N 9 13 5 7 1017.1 1017.1 0.0
18/11:00am 24.8 27.0 20.5 77 2.8 NE 9 15 5 8 1017.7 1017.7 0.0
18/10:30am 24.7 27.3 20.0 75 3.0 N 6 9 3 5 1018.0 1018.0 0.0
18/10:00am 23.9 26.2 19.8 78 2.6 SE 7 11 4 6 1018.5 1018.5 0.0
18/09:30am 23.4 26.2 20.5 84 1.9 S 6 7 3 4 1018.6 1018.6 0.0
18/09:00am 22.6 25.1 20.3 87 1.5 SSE 7 7 4 4 1018.8 1018.8 3.0
18/08:30am 21.5 24.5 20.1 92 0.9 SSW 4 6 2 3 1018.9 1018.9 3.0
18/08:00am 20.8 24.2 20.1 96 0.4 S 2 6 1 3 1018.8 1018.8 3.0
18/07:30am 20.2 23.5 20.0 99 0.1 S 2 7 1 4 1018.8 1018.8 3.0
18/07:00am 19.6 23.1 19.6 100 0.0 CALM 0 0 0 0 1018.6 1018.6 3.0
18/06:30am 19.1 22.0 19.1 100 0.0 SSW 2 7 1 4 1018.4 1018.4 3.0
18/06:00am 18.3 21.1 18.0 98 0.2 CALM 0 0 0 0 1018.4 1018.4 3.0
18/05:41am 18.8 20.8 18.8 100 0.0 SSE 6 7 3 4 1018.3 1018.3 3.0
18/05:30am 18.8 21.9 18.6 99 0.1 CALM 0 7 0 4 1018.2 1018.2 3.0
18/05:00am 18.5 21.4 18.3 99 0.1 CALM 0 0 0 0 1018.1 1018.1 3.0
18/04:53am 18.8 21.9 18.6 99 0.1 CALM 0 0 0 0 1018.3 1018.3 3.0
18/04:39am 18.7 21.7 18.5 99 0.1 CALM 0 0 0 0 1018.2 1018.2 3.0
18/04:30am 18.8 22.0 18.8 100 0.0 CALM 0 0 0 0 1018.1 1018.1 3.0
18/04:20am 18.6 21.5 18.3 98 0.2 CALM 0 0 0 0 1018.2 1018.2 3.0
18/04:00am 19.0 22.2 18.8 99 0.1 CALM 0 0 0 0 1018.3 1018.3 3.0
18/03:30am 18.9 20.9 18.7 99 0.1 SSE 6 7 3 4 1018.5 1018.5 3.0
18/03:00am 19.2 22.1 19.0 99 0.1 SSW 2 6 1 3 1018.7 1018.7 3.0
18/02:30am 19.4 21.6 19.2 99 0.1 S 6 6 3 3 1018.8 1018.8 3.0
18/02:00am 19.8 22.1 19.5 98 0.2 SSW 6 7 3 4 1019.3 1019.3 3.0
18/01:30am 20.3 22.7 19.6 96 0.4 SW 6 7 3 4 1019.7 1019.7 3.0
18/01:00am 20.6 23.1 19.9 96 0.4 WSW 6 7 3 4 1020.1 1020.1 3.0
18/12:30am 20.4 21.9 19.7 96 0.4 S 11 15 6 8 1020.3 1020.3 3.0
18/12:16am 20.5 21.6 19.7 95 0.5 SSE 13 17 7 9 1020.4 1020.4 3.0
18/12:00am 21.0 22.5 19.7 92 0.8 ENE 11 20 6 11 1020.7 1020.7 1.8
 
Date/Time
EST
Temp
°C
App
Temp
°C
Dew
Point
°C
Rel
Hum
%
Delta-T
°C
Wind Press
QNH
hPa
Press
MSL
hPa
Rain since
9am
mm
Dir  Spd
km/h
Gust
km/h
Spd
kts
Gust
kts
17/11:59pm 21.0 22.0 19.5 91 1.0 ENE 13 20 7 11 1020.7 1020.7 1.6
17/11:30pm 20.6 22.6 19.1 91 0.9 SW 7 9 4 5 1020.7 1020.7 0.0
17/11:00pm 20.7 22.7 19.2 91 0.9 SW 7 11 4 6 1021.0 1021.0 0.0
17/10:30pm 20.9 23.1 19.7 93 0.8 WSW 7 9 4 5 1021.2 1021.2 0.0
17/10:00pm 21.1 22.9 19.6 91 1.0 SW 9 11 5 6 1021.4 1021.4 0.0
17/09:30pm 20.8 23.0 19.3 91 0.9 SW 6 7 3 4 1021.4 1021.4 0.0
17/09:00pm 21.1 23.2 19.4 90 1.1 WSW 7 11 4 6 1021.3 1021.3 0.0
17/08:30pm 21.0 23.2 19.5 91 1.0 WSW 7 9 4 5 1021.4 1021.4 0.0
17/08:00pm 21.1 23.4 19.4 90 1.1 W 6 9 3 5 1021.2 1021.2 0.0
17/07:30pm 21.2 23.9 19.5 90 1.1 W 4 9 2 5 1021.1 1021.1 0.0
17/07:00pm 21.6 22.9 19.3 87 1.5 WSW 11 13 6 7 1020.8 1020.8 0.0
17/06:30pm 21.7 24.0 19.8 89 1.2 WSW 7 9 4 5 1020.5 1020.5 0.0
17/06:00pm 22.6 24.3 18.6 78 2.5 SE 7 9 4 5 1020.2 1020.2 0.0
17/05:30pm 23.9 24.8 18.3 71 3.5 ESE 11 15 6 8 1020.2 1020.2 0.0

Other formats

Comma delimited format used in spreadsheet applications
http://www.bom.gov.au/fwo/IDQ60801/IDQ60801.94592.axf

JavaScript Object Notation format (JSON) in row-major order
http://www.bom.gov.au/fwo/IDQ60801/IDQ60801.94592.json

Data quality

Most of these data are generated automatically and are frequently updated. Quality checks on data are not normally performed. It is possible for incorrect values to appear. Refer to information at About Latest Weather Observations and please check the disclaimer before using these data.